sensor_id;sensor_type;location;lat;lon;timestamp;P1;durP1;ratioP1;P2;durP2;ratioP2
63434;SDS011;68814;50.872;5.306;2023-04-24T00:00:26;22.45;;;9.85;;
63434;SDS011;68814;50.872;5.306;2023-04-24T00:02:54;19.08;;;9.57;;
63434;SDS011;68814;50.872;5.306;2023-04-24T00:05:40;19.88;;;9.82;;
63434;SDS011;68814;50.872;5.306;2023-04-24T00:08:09;18.13;;;10.68;;
63434;SDS011;68814;50.872;5.306;2023-04-24T00:10:52;18.73;;;10.82;;
63434;SDS011;68814;50.872;5.306;2023-04-24T00:13:20;16.13;;;9.52;;
63434;SDS011;68814;50.872;5.306;2023-04-24T00:15:50;21.48;;;10.73;;
63434;SDS011;68814;50.872;5.306;2023-04-24T00:18:21;24.77;;;10.85;;
63434;SDS011;68814;50.872;5.306;2023-04-24T00:20:48;22.27;;;10.45;;
63434;SDS011;68814;50.872;5.306;2023-04-24T00:23:15;24.60;;;11.15;;
63434;SDS011;68814;50.872;5.306;2023-04-24T00:26:01;23.13;;;11.48;;
63434;SDS011;68814;50.872;5.306;2023-04-24T00:28:30;19.40;;;11.50;;
63434;SDS011;68814;50.872;5.306;2023-04-24T00:31:17;23.95;;;12.35;;
63434;SDS011;68814;50.872;5.306;2023-04-24T00:33:44;24.08;;;12.77;;
63434;SDS011;68814;50.872;5.306;2023-04-24T00:36:30;20.38;;;12.35;;
63434;SDS011;68814;50.872;5.306;2023-04-24T00:39:38;27.45;;;12.70;;
63434;SDS011;68814;50.872;5.306;2023-04-24T00:42:24;21.27;;;12.35;;
63434;SDS011;68814;50.872;5.306;2023-04-24T00:45:11;24.83;;;12.65;;
63434;SDS011;68814;50.872;5.306;2023-04-24T00:47:59;23.08;;;12.73;;
63434;SDS011;68814;50.872;5.306;2023-04-24T00:51:05;29.52;;;12.35;;
63434;SDS011;68814;50.872;5.306;2023-04-24T00:54:33;25.88;;;13.00;;
63434;SDS011;68814;50.872;5.306;2023-04-24T00:57:57;21.90;;;12.90;;
63434;SDS011;68814;50.872;5.306;2023-04-24T01:08:52;27.80;;;13.05;;
63434;SDS011;68814;50.872;5.306;2023-04-24T01:12:00;28.48;;;13.40;;
63434;SDS011;68814;50.872;5.306;2023-04-24T01:14:28;29.15;;;12.90;;
63434;SDS011;68814;50.872;5.306;2023-04-24T01:25:20;26.05;;;12.80;;
63434;SDS011;68814;50.872;5.306;2023-04-24T01:28:14;20.90;;;12.07;;
63434;SDS011;68814;50.872;5.306;2023-04-24T01:31:00;18.98;;;12.50;;
63434;SDS011;68814;50.872;5.306;2023-04-24T01:33:47;29.42;;;13.07;;
63434;SDS011;68814;50.872;5.306;2023-04-24T01:36:15;23.33;;;12.70;;
63434;SDS011;68814;50.872;5.306;2023-04-24T01:38:43;25.65;;;12.57;;
63434;SDS011;68814;50.872;5.306;2023-04-24T01:41:29;26.95;;;11.85;;
63434;SDS011;68814;50.872;5.306;2023-04-24T01:44:35;24.55;;;12.45;;
63434;SDS011;68814;50.872;5.306;2023-04-24T01:47:22;25.60;;;12.73;;
63434;SDS011;68814;50.872;5.306;2023-04-24T02:08:38;24.48;;;12.55;;
63434;SDS011;68814;50.872;5.306;2023-04-24T02:11:14;27.52;;;12.43;;
63434;SDS011;68814;50.872;5.306;2023-04-24T02:13:41;24.20;;;13.50;;
63434;SDS011;68814;50.872;5.306;2023-04-24T02:16:28;29.85;;;14.00;;
63434;SDS011;68814;50.872;5.306;2023-04-24T02:18:58;21.50;;;12.55;;
63434;SDS011;68814;50.872;5.306;2023-04-24T02:21:49;22.50;;;12.75;;
63434;SDS011;68814;50.872;5.306;2023-04-24T02:24:17;19.25;;;11.77;;
63434;SDS011;68814;50.872;5.306;2023-04-24T02:27:03;24.55;;;12.98;;
63434;SDS011;68814;50.872;5.306;2023-04-24T02:29:32;21.20;;;11.82;;
63434;SDS011;68814;50.872;5.306;2023-04-24T02:32:00;22.80;;;13.13;;
63434;SDS011;68814;50.872;5.306;2023-04-24T02:34:27;21.98;;;12.48;;
63434;SDS011;68814;50.872;5.306;2023-04-24T02:36:54;20.65;;;12.32;;
63434;SDS011;68814;50.872;5.306;2023-04-24T02:39:20;32.00;;;13.85;;
63434;SDS011;68814;50.872;5.306;2023-04-24T02:41:46;23.05;;;12.68;;
63434;SDS011;68814;50.872;5.306;2023-04-24T02:44:32;19.95;;;12.30;;
63434;SDS011;68814;50.872;5.306;2023-04-24T02:47:18;20.95;;;11.10;;
63434;SDS011;68814;50.872;5.306;2023-04-24T02:49:45;20.77;;;11.95;;
63434;SDS011;68814;50.872;5.306;2023-04-24T02:52:35;19.45;;;11.70;;
63434;SDS011;68814;50.872;5.306;2023-04-24T02:55:02;22.45;;;12.32;;
63434;SDS011;68814;50.872;5.306;2023-04-24T02:57:51;21.75;;;12.25;;
63434;SDS011;68814;50.872;5.306;2023-04-24T03:00:39;26.33;;;13.57;;
63434;SDS011;68814;50.872;5.306;2023-04-24T03:03:09;21.45;;;13.05;;
63434;SDS011;68814;50.872;5.306;2023-04-24T03:06:16;22.08;;;13.20;;
63434;SDS011;68814;50.872;5.306;2023-04-24T03:09:02;22.80;;;13.00;;
63434;SDS011;68814;50.872;5.306;2023-04-24T03:11:48;23.52;;;12.65;;
63434;SDS011;68814;50.872;5.306;2023-04-24T03:14:35;22.05;;;13.27;;
63434;SDS011;68814;50.872;5.306;2023-04-24T03:17:21;22.98;;;12.45;;
63434;SDS011;68814;50.872;5.306;2023-04-24T03:19:47;20.98;;;12.95;;
63434;SDS011;68814;50.872;5.306;2023-04-24T03:22:34;21.77;;;13.13;;
63434;SDS011;68814;50.872;5.306;2023-04-24T03:25:00;19.40;;;13.23;;
63434;SDS011;68814;50.872;5.306;2023-04-24T03:27:27;26.90;;;13.80;;
63434;SDS011;68814;50.872;5.306;2023-04-24T03:29:52;23.05;;;14.00;;
63434;SDS011;68814;50.872;5.306;2023-04-24T03:32:21;20.25;;;12.82;;
63434;SDS011;68814;50.872;5.306;2023-04-24T03:34:49;27.30;;;12.93;;
63434;SDS011;68814;50.872;5.306;2023-04-24T03:37:16;23.08;;;12.90;;
63434;SDS011;68814;50.872;5.306;2023-04-24T03:39:42;18.95;;;11.82;;
63434;SDS011;68814;50.872;5.306;2023-04-24T03:42:08;22.63;;;13.55;;
63434;SDS011;68814;50.872;5.306;2023-04-24T03:44:34;21.70;;;12.75;;
63434;SDS011;68814;50.872;5.306;2023-04-24T03:47:01;24.83;;;12.48;;
63434;SDS011;68814;50.872;5.306;2023-04-24T03:49:27;24.27;;;12.38;;
63434;SDS011;68814;50.872;5.306;2023-04-24T03:51:52;21.75;;;12.25;;
63434;SDS011;68814;50.872;5.306;2023-04-24T03:54:19;25.50;;;12.25;;
63434;SDS011;68814;50.872;5.306;2023-04-24T03:56:44;20.38;;;12.13;;
63434;SDS011;68814;50.872;5.306;2023-04-24T03:59:11;23.05;;;13.23;;
63434;SDS011;68814;50.872;5.306;2023-04-24T04:01:36;21.05;;;11.50;;
63434;SDS011;68814;50.872;5.306;2023-04-24T04:04:06;22.17;;;11.82;;
63434;SDS011;68814;50.872;5.306;2023-04-24T04:06:33;19.08;;;10.77;;
63434;SDS011;68814;50.872;5.306;2023-04-24T04:08:59;19.08;;;10.88;;
63434;SDS011;68814;50.872;5.306;2023-04-24T04:11:25;24.75;;;11.45;;
63434;SDS011;68814;50.872;5.306;2023-04-24T04:13:51;20.95;;;11.45;;
63434;SDS011;68814;50.872;5.306;2023-04-24T04:16:18;20.33;;;11.48;;
63434;SDS011;68814;50.872;5.306;2023-04-24T04:18:44;19.25;;;11.50;;
63434;SDS011;68814;50.872;5.306;2023-04-24T04:21:30;22.83;;;11.70;;
63434;SDS011;68814;50.872;5.306;2023-04-24T04:24:21;25.10;;;10.98;;
63434;SDS011;68814;50.872;5.306;2023-04-24T04:27:07;20.58;;;10.77;;
63434;SDS011;68814;50.872;5.306;2023-04-24T04:29:33;19.15;;;10.98;;
63434;SDS011;68814;50.872;5.306;2023-04-24T04:32:00;20.50;;;12.10;;
63434;SDS011;68814;50.872;5.306;2023-04-24T04:34:27;21.65;;;12.25;;
63434;SDS011;68814;50.872;5.306;2023-04-24T04:37:13;23.65;;;11.77;;
63434;SDS011;68814;50.872;5.306;2023-04-24T04:39:41;18.80;;;11.75;;
63434;SDS011;68814;50.872;5.306;2023-04-24T04:42:09;21.45;;;11.13;;
63434;SDS011;68814;50.872;5.306;2023-04-24T04:44:35;21.60;;;11.18;;
63434;SDS011;68814;50.872;5.306;2023-04-24T04:47:02;19.80;;;10.80;;
63434;SDS011;68814;50.872;5.306;2023-04-24T04:49:49;21.85;;;11.55;;
63434;SDS011;68814;50.872;5.306;2023-04-24T04:52:16;20.10;;;11.10;;
63434;SDS011;68814;50.872;5.306;2023-04-24T04:54:45;19.70;;;9.55;;
63434;SDS011;68814;50.872;5.306;2023-04-24T04:57:11;20.45;;;9.70;;
63434;SDS011;68814;50.872;5.306;2023-04-24T04:59:58;18.10;;;8.48;;
63434;SDS011;68814;50.872;5.306;2023-04-24T05:02:24;16.70;;;9.32;;
63434;SDS011;68814;50.872;5.306;2023-04-24T05:05:10;21.40;;;11.38;;
63434;SDS011;68814;50.872;5.306;2023-04-24T05:07:36;21.50;;;9.52;;
63434;SDS011;68814;50.872;5.306;2023-04-24T05:10:02;16.02;;;8.55;;
63434;SDS011;68814;50.872;5.306;2023-04-24T05:12:29;11.90;;;7.90;;
63434;SDS011;68814;50.872;5.306;2023-04-24T05:14:55;15.07;;;8.52;;
63434;SDS011;68814;50.872;5.306;2023-04-24T05:17:21;14.05;;;8.18;;
63434;SDS011;68814;50.872;5.306;2023-04-24T05:19:47;14.85;;;8.13;;
63434;SDS011;68814;50.872;5.306;2023-04-24T05:22:13;14.52;;;8.50;;
63434;SDS011;68814;50.872;5.306;2023-04-24T05:24:39;12.45;;;8.38;;
63434;SDS011;68814;50.872;5.306;2023-04-24T05:27:04;14.68;;;8.35;;
63434;SDS011;68814;50.872;5.306;2023-04-24T05:29:31;13.68;;;8.70;;
63434;SDS011;68814;50.872;5.306;2023-04-24T05:31:58;15.35;;;8.82;;
63434;SDS011;68814;50.872;5.306;2023-04-24T05:34:24;14.93;;;8.13;;
63434;SDS011;68814;50.872;5.306;2023-04-24T05:36:53;12.95;;;8.02;;
63434;SDS011;68814;50.872;5.306;2023-04-24T05:39:19;10.30;;;6.43;;
63434;SDS011;68814;50.872;5.306;2023-04-24T05:41:45;11.55;;;5.93;;
63434;SDS011;68814;50.872;5.306;2023-04-24T05:44:11;10.82;;;5.47;;
63434;SDS011;68814;50.872;5.306;2023-04-24T05:46:37;9.45;;;5.32;;
63434;SDS011;68814;50.872;5.306;2023-04-24T05:49:03;11.15;;;5.95;;
63434;SDS011;68814;50.872;5.306;2023-04-24T05:51:28;10.20;;;5.30;;
63434;SDS011;68814;50.872;5.306;2023-04-24T05:53:55;10.88;;;6.05;;
63434;SDS011;68814;50.872;5.306;2023-04-24T05:56:21;10.98;;;5.72;;
63434;SDS011;68814;50.872;5.306;2023-04-24T05:58:47;6.15;;;3.65;;
63434;SDS011;68814;50.872;5.306;2023-04-24T06:01:13;7.25;;;4.10;;
63434;SDS011;68814;50.872;5.306;2023-04-24T06:03:40;9.10;;;4.50;;
63434;SDS011;68814;50.872;5.306;2023-04-24T06:06:06;8.25;;;4.43;;
63434;SDS011;68814;50.872;5.306;2023-04-24T06:08:32;7.68;;;4.32;;
63434;SDS011;68814;50.872;5.306;2023-04-24T06:10:58;5.72;;;4.68;;
63434;SDS011;68814;50.872;5.306;2023-04-24T06:13:24;8.10;;;4.40;;
63434;SDS011;68814;50.872;5.306;2023-04-24T06:15:50;11.30;;;6.22;;
63434;SDS011;68814;50.872;5.306;2023-04-24T06:18:16;10.43;;;6.68;;
63434;SDS011;68814;50.872;5.306;2023-04-24T06:20:42;14.48;;;8.13;;
63434;SDS011;68814;50.872;5.306;2023-04-24T06:23:07;13.93;;;8.85;;
63434;SDS011;68814;50.872;5.306;2023-04-24T06:25:35;19.40;;;9.70;;
63434;SDS011;68814;50.872;5.306;2023-04-24T06:28:01;16.15;;;9.23;;
63434;SDS011;68814;50.872;5.306;2023-04-24T06:30:27;16.15;;;9.38;;
63434;SDS011;68814;50.872;5.306;2023-04-24T06:32:53;18.13;;;9.52;;
63434;SDS011;68814;50.872;5.306;2023-04-24T06:35:19;14.52;;;8.70;;
63434;SDS011;68814;50.872;5.306;2023-04-24T06:37:44;18.45;;;9.90;;
63434;SDS011;68814;50.872;5.306;2023-04-24T06:40:10;13.63;;;7.80;;
63434;SDS011;68814;50.872;5.306;2023-04-24T06:45:58;18.95;;;8.82;;
63434;SDS011;68814;50.872;5.306;2023-04-24T06:48:25;15.80;;;8.88;;
63434;SDS011;68814;50.872;5.306;2023-04-24T06:50:51;18.30;;;9.43;;
63434;SDS011;68814;50.872;5.306;2023-04-24T06:53:17;19.40;;;9.13;;
63434;SDS011;68814;50.872;5.306;2023-04-24T06:55:43;19.98;;;9.90;;
63434;SDS011;68814;50.872;5.306;2023-04-24T06:58:10;21.50;;;10.40;;
63434;SDS011;68814;50.872;5.306;2023-04-24T07:00:36;20.92;;;10.48;;
63434;SDS011;68814;50.872;5.306;2023-04-24T07:06:23;20.88;;;10.57;;
63434;SDS011;68814;50.872;5.306;2023-04-24T07:08:49;18.38;;;11.60;;
63434;SDS011;68814;50.872;5.306;2023-04-24T07:11:15;20.60;;;10.93;;
63434;SDS011;68814;50.872;5.306;2023-04-24T07:13:40;25.83;;;12.88;;
63434;SDS011;68814;50.872;5.306;2023-04-24T07:16:09;16.77;;;10.40;;
63434;SDS011;68814;50.872;5.306;2023-04-24T07:18:35;17.45;;;10.90;;
63434;SDS011;68814;50.872;5.306;2023-04-24T07:21:16;17.88;;;10.52;;
63434;SDS011;68814;50.872;5.306;2023-04-24T07:23:42;21.20;;;10.75;;
63434;SDS011;68814;50.872;5.306;2023-04-24T07:26:08;19.13;;;11.48;;
63434;SDS011;68814;50.872;5.306;2023-04-24T07:28:33;16.45;;;10.82;;
63434;SDS011;68814;50.872;5.306;2023-04-24T07:30:59;22.55;;;12.07;;
63434;SDS011;68814;50.872;5.306;2023-04-24T07:36:20;24.40;;;11.50;;
63434;SDS011;68814;50.872;5.306;2023-04-24T07:53:01;28.85;;;14.20;;
63434;SDS011;68814;50.872;5.306;2023-04-24T07:55:27;28.98;;;14.02;;
63434;SDS011;68814;50.872;5.306;2023-04-24T07:57:53;29.48;;;14.35;;
63434;SDS011;68814;50.872;5.306;2023-04-24T08:00:26;26.70;;;14.05;;
63434;SDS011;68814;50.872;5.306;2023-04-24T08:02:52;23.13;;;13.50;;
63434;SDS011;68814;50.872;5.306;2023-04-24T08:05:18;27.77;;;13.35;;
63434;SDS011;68814;50.872;5.306;2023-04-24T08:07:45;30.25;;;14.88;;
63434;SDS011;68814;50.872;5.306;2023-04-24T08:10:15;22.50;;;12.70;;
63434;SDS011;68814;50.872;5.306;2023-04-24T08:13:22;26.42;;;13.35;;
63434;SDS011;68814;50.872;5.306;2023-04-24T08:15:50;25.02;;;13.07;;
63434;SDS011;68814;50.872;5.306;2023-04-24T08:18:36;20.35;;;10.80;;
63434;SDS011;68814;50.872;5.306;2023-04-24T08:21:02;21.27;;;10.57;;
63434;SDS011;68814;50.872;5.306;2023-04-24T08:23:29;23.83;;;10.57;;
63434;SDS011;68814;50.872;5.306;2023-04-24T08:25:58;17.58;;;9.93;;
63434;SDS011;68814;50.872;5.306;2023-04-24T08:28:24;19.25;;;9.40;;
63434;SDS011;68814;50.872;5.306;2023-04-24T08:30:51;18.08;;;8.55;;
63434;SDS011;68814;50.872;5.306;2023-04-24T08:33:24;18.63;;;8.48;;
63434;SDS011;68814;50.872;5.306;2023-04-24T08:36:35;19.65;;;9.48;;
63434;SDS011;68814;50.872;5.306;2023-04-24T08:39:22;18.13;;;7.50;;
63434;SDS011;68814;50.872;5.306;2023-04-24T08:42:28;20.38;;;7.00;;
63434;SDS011;68814;50.872;5.306;2023-04-24T08:50:40;14.95;;;6.55;;
63434;SDS011;68814;50.872;5.306;2023-04-24T08:53:42;13.02;;;6.10;;
63434;SDS011;68814;50.872;5.306;2023-04-24T08:56:08;12.30;;;5.78;;
63434;SDS011;68814;50.872;5.306;2023-04-24T08:58:36;15.63;;;6.30;;
63434;SDS011;68814;50.872;5.306;2023-04-24T09:01:03;22.17;;;6.78;;
63434;SDS011;68814;50.872;5.306;2023-04-24T09:03:30;15.00;;;5.65;;
63434;SDS011;68814;50.872;5.306;2023-04-24T09:05:57;9.85;;;4.75;;
63434;SDS011;68814;50.872;5.306;2023-04-24T09:14:44;13.20;;;4.90;;
63434;SDS011;68814;50.872;5.306;2023-04-24T09:17:11;12.75;;;4.80;;
63434;SDS011;68814;50.872;5.306;2023-04-24T09:19:37;10.90;;;4.90;;
63434;SDS011;68814;50.872;5.306;2023-04-24T09:22:06;16.83;;;5.38;;
63434;SDS011;68814;50.872;5.306;2023-04-24T09:24:33;17.30;;;6.07;;
63434;SDS011;68814;50.872;5.306;2023-04-24T09:26:59;18.58;;;5.97;;
63434;SDS011;68814;50.872;5.306;2023-04-24T09:30:02;15.38;;;6.47;;
63434;SDS011;68814;50.872;5.306;2023-04-24T09:37:42;14.35;;;7.07;;
63434;SDS011;68814;50.872;5.306;2023-04-24T09:40:10;18.80;;;6.38;;
63434;SDS011;68814;50.872;5.306;2023-04-24T09:42:37;16.33;;;6.22;;
63434;SDS011;68814;50.872;5.306;2023-04-24T09:45:08;15.25;;;7.05;;
63434;SDS011;68814;50.872;5.306;2023-04-24T09:47:38;15.02;;;6.72;;
63434;SDS011;68814;50.872;5.306;2023-04-24T09:50:30;18.33;;;6.55;;
63434;SDS011;68814;50.872;5.306;2023-04-24T09:53:02;12.82;;;5.93;;
63434;SDS011;68814;50.872;5.306;2023-04-24T09:55:29;17.75;;;6.70;;
63434;SDS011;68814;50.872;5.306;2023-04-24T09:57:59;16.27;;;6.63;;
63434;SDS011;68814;50.872;5.306;2023-04-24T10:00:28;17.38;;;6.93;;
63434;SDS011;68814;50.872;5.306;2023-04-24T10:03:04;18.98;;;7.07;;
63434;SDS011;68814;50.872;5.306;2023-04-24T10:08:36;14.13;;;5.55;;
63434;SDS011;68814;50.872;5.306;2023-04-24T10:11:02;13.50;;;6.03;;
63434;SDS011;68814;50.872;5.306;2023-04-24T10:13:28;21.80;;;6.22;;
63434;SDS011;68814;50.872;5.306;2023-04-24T10:15:54;12.43;;;5.32;;
63434;SDS011;68814;50.872;5.306;2023-04-24T10:35:09;14.15;;;5.47;;
63434;SDS011;68814;50.872;5.306;2023-04-24T10:40:10;15.07;;;6.47;;
63434;SDS011;68814;50.872;5.306;2023-04-24T10:42:40;20.25;;;7.15;;
63434;SDS011;68814;50.872;5.306;2023-04-24T10:45:15;19.10;;;5.63;;
63434;SDS011;68814;50.872;5.306;2023-04-24T10:47:42;14.65;;;4.95;;
63434;SDS011;68814;50.872;5.306;2023-04-24T10:50:51;14.32;;;5.55;;
63434;SDS011;68814;50.872;5.306;2023-04-24T10:53:21;14.05;;;5.68;;
63434;SDS011;68814;50.872;5.306;2023-04-24T11:01:34;14.02;;;4.57;;
63434;SDS011;68814;50.872;5.306;2023-04-24T11:04:03;14.18;;;4.85;;
63434;SDS011;68814;50.872;5.306;2023-04-24T11:06:29;13.07;;;5.07;;
63434;SDS011;68814;50.872;5.306;2023-04-24T11:09:07;12.27;;;3.40;;
63434;SDS011;68814;50.872;5.306;2023-04-24T11:11:35;8.57;;;3.33;;
63434;SDS011;68814;50.872;5.306;2023-04-24T11:14:03;11.88;;;3.20;;
63434;SDS011;68814;50.872;5.306;2023-04-24T11:19:23;8.55;;;3.58;;
63434;SDS011;68814;50.872;5.306;2023-04-24T11:22:14;7.30;;;2.80;;
63434;SDS011;68814;50.872;5.306;2023-04-24T11:37:24;11.00;;;4.32;;
63434;SDS011;68814;50.872;5.306;2023-04-24T11:39:55;12.10;;;4.78;;
63434;SDS011;68814;50.872;5.306;2023-04-24T11:42:23;9.05;;;3.78;;
63434;SDS011;68814;50.872;5.306;2023-04-24T11:44:51;10.38;;;3.92;;
63434;SDS011;68814;50.872;5.306;2023-04-24T11:47:18;9.07;;;3.60;;
63434;SDS011;68814;50.872;5.306;2023-04-24T11:49:43;8.60;;;3.50;;
63434;SDS011;68814;50.872;5.306;2023-04-24T11:59:08;7.82;;;3.55;;
63434;SDS011;68814;50.872;5.306;2023-04-24T12:01:42;6.47;;;3.50;;
63434;SDS011;68814;50.872;5.306;2023-04-24T12:04:09;8.07;;;3.38;;
63434;SDS011;68814;50.872;5.306;2023-04-24T12:06:35;6.25;;;3.38;;
63434;SDS011;68814;50.872;5.306;2023-04-24T12:09:00;6.82;;;3.95;;
63434;SDS011;68814;50.872;5.306;2023-04-24T12:11:26;10.18;;;4.43;;
63434;SDS011;68814;50.872;5.306;2023-04-24T12:13:52;10.00;;;4.07;;
63434;SDS011;68814;50.872;5.306;2023-04-24T12:16:17;8.90;;;4.18;;
63434;SDS011;68814;50.872;5.306;2023-04-24T12:18:44;9.88;;;4.22;;
63434;SDS011;68814;50.872;5.306;2023-04-24T12:23:49;6.20;;;3.88;;
63434;SDS011;68814;50.872;5.306;2023-04-24T12:26:19;9.73;;;3.42;;
63434;SDS011;68814;50.872;5.306;2023-04-24T12:28:47;6.50;;;3.53;;
63434;SDS011;68814;50.872;5.306;2023-04-24T12:31:16;7.18;;;3.58;;
63434;SDS011;68814;50.872;5.306;2023-04-24T12:33:42;10.88;;;4.07;;
63434;SDS011;68814;50.872;5.306;2023-04-24T12:36:11;8.25;;;3.72;;
63434;SDS011;68814;50.872;5.306;2023-04-24T12:38:37;8.13;;;3.92;;
63434;SDS011;68814;50.872;5.306;2023-04-24T12:41:09;7.90;;;3.90;;
63434;SDS011;68814;50.872;5.306;2023-04-24T12:46:58;14.10;;;5.00;;
63434;SDS011;68814;50.872;5.306;2023-04-24T12:49:24;7.55;;;4.03;;
63434;SDS011;68814;50.872;5.306;2023-04-24T12:51:49;7.20;;;4.10;;
63434;SDS011;68814;50.872;5.306;2023-04-24T12:54:15;7.55;;;4.15;;
63434;SDS011;68814;50.872;5.306;2023-04-24T12:56:41;6.43;;;3.72;;
63434;SDS011;68814;50.872;5.306;2023-04-24T12:59:06;8.77;;;4.63;;
63434;SDS011;68814;50.872;5.306;2023-04-24T13:01:33;9.30;;;4.38;;
63434;SDS011;68814;50.872;5.306;2023-04-24T13:03:59;10.63;;;4.82;;
63434;SDS011;68814;50.872;5.306;2023-04-24T13:06:25;9.45;;;4.40;;
63434;SDS011;68814;50.872;5.306;2023-04-24T13:08:51;10.25;;;3.92;;
63434;SDS011;68814;50.872;5.306;2023-04-24T13:11:17;5.38;;;3.80;;
63434;SDS011;68814;50.872;5.306;2023-04-24T13:13:43;5.03;;;3.30;;
63434;SDS011;68814;50.872;5.306;2023-04-24T13:16:14;7.78;;;3.58;;
63434;SDS011;68814;50.872;5.306;2023-04-24T13:19:01;7.40;;;3.83;;
63434;SDS011;68814;50.872;5.306;2023-04-24T13:21:30;7.43;;;3.88;;
63434;SDS011;68814;50.872;5.306;2023-04-24T13:23:56;10.52;;;4.18;;
63434;SDS011;68814;50.872;5.306;2023-04-24T13:26:22;8.48;;;3.80;;
63434;SDS011;68814;50.872;5.306;2023-04-24T13:28:48;5.60;;;3.63;;
63434;SDS011;68814;50.872;5.306;2023-04-24T13:31:13;5.75;;;3.47;;
63434;SDS011;68814;50.872;5.306;2023-04-24T13:33:39;9.15;;;3.83;;
63434;SDS011;68814;50.872;5.306;2023-04-24T13:36:08;9.73;;;3.63;;
63434;SDS011;68814;50.872;5.306;2023-04-24T13:38:34;6.65;;;3.67;;
63434;SDS011;68814;50.872;5.306;2023-04-24T13:41:00;6.80;;;3.13;;
63434;SDS011;68814;50.872;5.306;2023-04-24T13:43:25;5.15;;;3.40;;
63434;SDS011;68814;50.872;5.306;2023-04-24T13:59:27;8.07;;;2.97;;
63434;SDS011;68814;50.872;5.306;2023-04-24T14:01:53;7.53;;;2.85;;
63434;SDS011;68814;50.872;5.306;2023-04-24T14:04:39;8.15;;;3.00;;
63434;SDS011;68814;50.872;5.306;2023-04-24T14:07:04;6.90;;;3.50;;
63434;SDS011;68814;50.872;5.306;2023-04-24T14:09:30;4.13;;;2.70;;
63434;SDS011;68814;50.872;5.306;2023-04-24T14:11:56;6.95;;;2.80;;
63434;SDS011;68814;50.872;5.306;2023-04-24T14:14:21;7.18;;;2.80;;
63434;SDS011;68814;50.872;5.306;2023-04-24T14:16:47;7.68;;;3.40;;
63434;SDS011;68814;50.872;5.306;2023-04-24T14:19:13;6.60;;;3.53;;
63434;SDS011;68814;50.872;5.306;2023-04-24T14:21:39;5.88;;;3.00;;
63434;SDS011;68814;50.872;5.306;2023-04-24T14:24:05;6.25;;;3.10;;
63434;SDS011;68814;50.872;5.306;2023-04-24T14:26:31;7.38;;;3.33;;
63434;SDS011;68814;50.872;5.306;2023-04-24T14:35:40;8.05;;;3.30;;
63434;SDS011;68814;50.872;5.306;2023-04-24T14:38:09;7.85;;;2.90;;
63434;SDS011;68814;50.872;5.306;2023-04-24T14:40:35;4.80;;;2.42;;
63434;SDS011;68814;50.872;5.306;2023-04-24T14:43:01;7.82;;;2.90;;
63434;SDS011;68814;50.872;5.306;2023-04-24T14:45:27;6.78;;;2.70;;
63434;SDS011;68814;50.872;5.306;2023-04-24T14:47:53;5.95;;;3.05;;
63434;SDS011;68814;50.872;5.306;2023-04-24T14:50:19;6.97;;;3.17;;
63434;SDS011;68814;50.872;5.306;2023-04-24T14:52:45;6.93;;;3.40;;
63434;SDS011;68814;50.872;5.306;2023-04-24T14:57:47;10.23;;;3.53;;
63434;SDS011;68814;50.872;5.306;2023-04-24T15:00:13;8.25;;;3.08;;
63434;SDS011;68814;50.872;5.306;2023-04-24T15:02:39;5.75;;;3.33;;
63434;SDS011;68814;50.872;5.306;2023-04-24T15:05:30;8.63;;;3.15;;
63434;SDS011;68814;50.872;5.306;2023-04-24T15:07:55;7.93;;;3.75;;
63434;SDS011;68814;50.872;5.306;2023-04-24T15:10:30;8.60;;;2.78;;
63434;SDS011;68814;50.872;5.306;2023-04-24T15:12:56;7.22;;;2.90;;
63434;SDS011;68814;50.872;5.306;2023-04-24T15:15:22;6.63;;;3.40;;
63434;SDS011;68814;50.872;5.306;2023-04-24T15:17:48;7.45;;;2.75;;
63434;SDS011;68814;50.872;5.306;2023-04-24T15:20:21;6.85;;;2.63;;
63434;SDS011;68814;50.872;5.306;2023-04-24T15:23:02;9.98;;;2.92;;
63434;SDS011;68814;50.872;5.306;2023-04-24T16:02:20;5.68;;;2.40;;
63434;SDS011;68814;50.872;5.306;2023-04-24T16:05:03;5.70;;;2.20;;
63434;SDS011;68814;50.872;5.306;2023-04-24T16:07:48;4.82;;;2.47;;
63434;SDS011;68814;50.872;5.306;2023-04-24T16:10:14;5.13;;;2.20;;
63434;SDS011;68814;50.872;5.306;2023-04-24T16:12:40;5.32;;;2.45;;
63434;SDS011;68814;50.872;5.306;2023-04-24T16:15:06;5.55;;;2.55;;
63434;SDS011;68814;50.872;5.306;2023-04-24T16:17:35;2.97;;;1.67;;
63434;SDS011;68814;50.872;5.306;2023-04-24T16:20:07;6.53;;;2.33;;
63434;SDS011;68814;50.872;5.306;2023-04-24T16:23:20;2.58;;;1.60;;
63434;SDS011;68814;50.872;5.306;2023-04-24T16:25:51;2.70;;;1.48;;
63434;SDS011;68814;50.872;5.306;2023-04-24T16:29:19;6.72;;;2.15;;
63434;SDS011;68814;50.872;5.306;2023-04-24T16:32:07;6.55;;;1.50;;
63434;SDS011;68814;50.872;5.306;2023-04-24T16:34:37;4.88;;;1.83;;
63434;SDS011;68814;50.872;5.306;2023-04-24T16:37:09;7.28;;;1.67;;
63434;SDS011;68814;50.872;5.306;2023-04-24T16:39:41;8.85;;;2.05;;
63434;SDS011;68814;50.872;5.306;2023-04-24T16:42:09;5.43;;;1.83;;
63434;SDS011;68814;50.872;5.306;2023-04-24T16:44:59;5.85;;;1.60;;
63434;SDS011;68814;50.872;5.306;2023-04-24T16:50:29;3.75;;;1.42;;
63434;SDS011;68814;50.872;5.306;2023-04-24T16:53:59;5.30;;;1.40;;
63434;SDS011;68814;50.872;5.306;2023-04-24T16:59:30;3.10;;;1.15;;
63434;SDS011;68814;50.872;5.306;2023-04-24T17:02:17;2.85;;;1.02;;
63434;SDS011;68814;50.872;5.306;2023-04-24T17:36:35;4.13;;;1.40;;
63434;SDS011;68814;50.872;5.306;2023-04-24T17:42:46;8.45;;;2.45;;
63434;SDS011;68814;50.872;5.306;2023-04-24T17:45:52;6.15;;;1.60;;
63434;SDS011;68814;50.872;5.306;2023-04-24T17:48:56;5.45;;;1.58;;
63434;SDS011;68814;50.872;5.306;2023-04-24T17:52:17;4.63;;;1.80;;
63434;SDS011;68814;50.872;5.306;2023-04-24T17:55:24;3.42;;;1.60;;
63434;SDS011;68814;50.872;5.306;2023-04-24T18:34:40;7.47;;;2.65;;
63434;SDS011;68814;50.872;5.306;2023-04-24T19:27:11;11.05;;;4.38;;
63434;SDS011;68814;50.872;5.306;2023-04-24T19:29:37;6.30;;;2.80;;
63434;SDS011;68814;50.872;5.306;2023-04-24T19:32:25;7.53;;;3.42;;
63434;SDS011;68814;50.872;5.306;2023-04-24T19:35:33;9.05;;;3.70;;
63434;SDS011;68814;50.872;5.306;2023-04-24T19:38:00;9.93;;;3.80;;
63434;SDS011;68814;50.872;5.306;2023-04-24T19:40:26;10.10;;;3.70;;
63434;SDS011;68814;50.872;5.306;2023-04-24T19:42:52;8.90;;;4.35;;
63434;SDS011;68814;50.872;5.306;2023-04-24T19:45:18;6.93;;;4.07;;
63434;SDS011;68814;50.872;5.306;2023-04-24T19:47:46;11.32;;;3.90;;
63434;SDS011;68814;50.872;5.306;2023-04-24T19:50:13;13.43;;;5.63;;
63434;SDS011;68814;50.872;5.306;2023-04-24T19:52:42;12.25;;;4.97;;
63434;SDS011;68814;50.872;5.306;2023-04-24T19:55:08;12.90;;;6.32;;
63434;SDS011;68814;50.872;5.306;2023-04-24T19:57:52;13.55;;;4.57;;
63434;SDS011;68814;50.872;5.306;2023-04-24T20:00:18;13.82;;;4.13;;
63434;SDS011;68814;50.872;5.306;2023-04-24T20:02:44;18.17;;;4.82;;
63434;SDS011;68814;50.872;5.306;2023-04-24T20:05:10;9.35;;;4.38;;
63434;SDS011;68814;50.872;5.306;2023-04-24T20:07:36;14.50;;;5.10;;
63434;SDS011;68814;50.872;5.306;2023-04-24T20:10:17;13.32;;;4.88;;
63434;SDS011;68814;50.872;5.306;2023-04-24T20:12:43;13.63;;;4.53;;
63434;SDS011;68814;50.872;5.306;2023-04-24T20:15:10;12.30;;;4.93;;
63434;SDS011;68814;50.872;5.306;2023-04-24T20:17:35;11.32;;;3.90;;
63434;SDS011;68814;50.872;5.306;2023-04-24T20:20:01;10.73;;;3.92;;
63434;SDS011;68814;50.872;5.306;2023-04-24T20:25:51;14.40;;;4.05;;
63434;SDS011;68814;50.872;5.306;2023-04-24T20:28:22;8.05;;;3.65;;